createdAt,value
2022-12-06T00:00:08.442Z,5.03
2022-12-06T00:02:40.402Z,4.70
2022-12-06T00:05:09.044Z,6.30
2022-12-06T00:07:39.671Z,5.30
2022-12-06T00:10:08.898Z,5.40
2022-12-06T00:12:36.850Z,4.73
2022-12-06T00:15:05.121Z,4.57
2022-12-06T00:17:33.036Z,3.97
2022-12-06T00:20:01.081Z,4.27
2022-12-06T00:22:29.253Z,4.10
2022-12-06T00:24:58.425Z,4.83
2022-12-06T00:27:26.338Z,5.27
2022-12-06T00:29:54.158Z,5.00
2022-12-06T00:32:22.048Z,4.60
2022-12-06T00:34:50.026Z,5.00
2022-12-06T00:37:17.944Z,5.43
2022-12-06T00:39:45.809Z,4.83
2022-12-06T00:42:15.139Z,5.40
2022-12-06T00:44:43.023Z,5.10
2022-12-06T00:47:11.139Z,4.80
2022-12-06T00:49:38.958Z,5.13
2022-12-06T00:52:06.809Z,4.17
2022-12-06T00:54:34.678Z,4.63
2022-12-06T00:57:02.645Z,4.40
2022-12-06T00:59:31.888Z,4.77
2022-12-06T01:01:59.733Z,4.20
2022-12-06T01:04:27.643Z,5.07
2022-12-06T01:06:55.493Z,5.20
2022-12-06T01:09:23.473Z,5.10
2022-12-06T01:11:51.707Z,5.30
2022-12-06T01:14:19.522Z,5.03
2022-12-06T01:16:48.649Z,5.20
2022-12-06T01:19:16.535Z,5.10
2022-12-06T01:21:44.268Z,4.80
2022-12-06T01:24:11.988Z,5.00
2022-12-06T01:26:39.726Z,6.70
2022-12-06T01:29:07.462Z,5.40
2022-12-06T01:31:38.658Z,5.20
2022-12-06T01:34:09.276Z,4.37
2022-12-06T01:36:37.060Z,5.10
2022-12-06T01:39:10.339Z,5.40
2022-12-06T01:41:39.421Z,5.17
2022-12-06T01:44:08.144Z,4.97
2022-12-06T01:46:40.624Z,6.73
2022-12-06T01:49:18.255Z,4.90
2022-12-06T01:51:50.349Z,5.53
2022-12-06T01:54:21.870Z,6.10
2022-12-06T01:56:51.863Z,5.30
2022-12-06T01:59:20.920Z,5.70
2022-12-06T02:01:49.755Z,6.20
2022-12-06T02:04:20.259Z,5.20
2022-12-06T02:06:48.741Z,5.70
2022-12-06T02:09:17.910Z,5.47
2022-12-06T02:11:47.263Z,6.20
2022-12-06T02:14:18.982Z,5.63
2022-12-06T02:17:04.383Z,6.30
2022-12-06T02:19:55.458Z,5.40
2022-12-06T02:22:34.103Z,5.40
2022-12-06T02:25:18.263Z,6.67
2022-12-06T02:28:19.358Z,6.37
2022-12-06T02:30:55.346Z,5.10
2022-12-06T02:33:29.761Z,7.27
2022-12-06T02:36:05.508Z,6.07
2022-12-06T02:38:37.242Z,6.03
2022-12-06T02:41:08.989Z,5.20
2022-12-06T02:43:41.808Z,5.37
2022-12-06T02:46:14.329Z,5.30
2022-12-06T02:48:44.301Z,5.60
2022-12-06T02:51:16.189Z,5.37
2022-12-06T02:53:48.658Z,5.67
2022-12-06T02:56:18.286Z,4.80
2022-12-06T02:58:45.992Z,6.77
2022-12-06T03:01:17.427Z,5.60
2022-12-06T03:03:58.527Z,6.00
2022-12-06T03:06:43.829Z,6.90
2022-12-06T03:09:24.423Z,7.40
2022-12-06T03:12:09.326Z,6.43
2022-12-06T03:14:46.749Z,6.33
2022-12-06T03:17:24.152Z,6.60
2022-12-06T03:19:59.272Z,6.33
2022-12-06T03:22:38.213Z,6.57
2022-12-06T03:25:10.388Z,6.23
2022-12-06T03:27:40.521Z,6.03
2022-12-06T03:30:12.395Z,6.50
2022-12-06T03:32:44.798Z,6.03
2022-12-06T03:35:15.655Z,6.63
2022-12-06T03:37:48.453Z,5.83
2022-12-06T03:40:20.805Z,6.87
2022-12-06T03:42:50.370Z,7.20
2022-12-06T03:45:18.992Z,7.37
2022-12-06T03:47:56.133Z,7.60
2022-12-06T03:50:29.077Z,6.40
2022-12-06T03:52:57.009Z,8.17
2022-12-06T03:55:24.697Z,7.63
2022-12-06T03:57:52.418Z,7.50
2022-12-06T04:00:20.931Z,6.63
2022-12-06T04:02:50.022Z,6.90
2022-12-06T04:05:17.863Z,6.63
2022-12-06T04:07:46.026Z,6.20
2022-12-06T04:10:13.791Z,6.70
2022-12-06T04:12:58.962Z,7.07
2022-12-06T04:15:26.695Z,6.80
2022-12-06T04:18:16.063Z,6.20
2022-12-06T04:21:04.932Z,7.60
2022-12-06T04:23:35.076Z,6.40
2022-12-06T04:26:03.670Z,6.63
2022-12-06T04:28:49.337Z,6.70
2022-12-06T04:31:35.512Z,7.20
2022-12-06T04:34:22.614Z,6.60
2022-12-06T04:37:08.222Z,7.50
2022-12-06T04:39:36.239Z,7.27
2022-12-06T04:42:21.890Z,6.90
2022-12-06T04:44:49.626Z,8.10
2022-12-06T04:47:17.825Z,7.30
2022-12-06T04:49:47.061Z,6.83
2022-12-06T04:52:15.196Z,8.57
2022-12-06T04:54:43.362Z,7.13
2022-12-06T04:57:13.603Z,7.97
2022-12-06T04:59:42.939Z,7.90
2022-12-06T05:02:13.696Z,8.30
2022-12-06T05:04:41.360Z,8.37
2022-12-06T05:07:11.691Z,7.07
2022-12-06T05:09:39.871Z,7.90
2022-12-06T05:12:08.436Z,8.20
2022-12-06T05:14:36.191Z,8.40
2022-12-06T05:17:04.255Z,8.70
2022-12-06T05:19:32.030Z,7.17
2022-12-06T05:22:00.043Z,7.30
2022-12-06T05:24:29.065Z,7.63
2022-12-06T05:26:56.786Z,7.67
2022-12-06T05:29:24.567Z,7.50
2022-12-06T05:31:52.607Z,7.03
2022-12-06T05:34:20.434Z,7.97
2022-12-06T05:36:48.415Z,7.53
2022-12-06T05:39:16.997Z,7.20
2022-12-06T05:41:47.197Z,8.90
2022-12-06T05:44:14.888Z,7.70
2022-12-06T05:46:42.603Z,8.23
2022-12-06T05:49:10.492Z,8.37
2022-12-06T05:51:38.196Z,7.80
2022-12-06T05:54:06.756Z,9.20
2022-12-06T05:56:34.701Z,8.73
2022-12-06T05:59:04.281Z,7.70
2022-12-06T06:01:32.193Z,8.87
2022-12-06T06:03:59.896Z,8.37
2022-12-06T06:06:27.640Z,8.00
2022-12-06T06:08:55.736Z,8.33
2022-12-06T06:11:23.567Z,8.63
2022-12-06T06:13:54.544Z,8.90
2022-12-06T06:16:23.702Z,8.43
2022-12-06T06:18:51.537Z,9.67
2022-12-06T06:21:19.277Z,9.83
2022-12-06T06:23:47.067Z,8.83
2022-12-06T06:26:14.783Z,9.27
2022-12-06T06:28:42.493Z,8.93
2022-12-06T06:31:10.230Z,8.40
2022-12-06T06:33:39.333Z,9.30
2022-12-06T06:36:07.798Z,8.90
2022-12-06T06:38:35.510Z,9.00
2022-12-06T06:41:03.424Z,9.80
2022-12-06T06:43:31.215Z,9.07
2022-12-06T06:46:01.216Z,10.77
2022-12-06T06:48:31.168Z,9.97
2022-12-06T06:51:04.342Z,9.60
2022-12-06T06:53:32.176Z,11.20
2022-12-06T06:55:59.900Z,10.30
2022-12-06T06:58:27.862Z,11.20
2022-12-06T07:00:57.084Z,11.40
2022-12-06T07:03:25.785Z,10.63
2022-12-06T07:05:54.027Z,10.83
2022-12-06T07:08:24.601Z,10.53
2022-12-06T07:10:52.711Z,10.23
2022-12-06T07:13:22.361Z,12.80
2022-12-06T07:15:50.859Z,10.87
2022-12-06T07:18:19.220Z,11.37
2022-12-06T07:20:48.029Z,11.63
2022-12-06T07:23:17.813Z,12.20
2022-12-06T07:25:46.875Z,10.00
2022-12-06T07:28:14.562Z,12.13
2022-12-06T07:30:42.382Z,11.20
2022-12-06T07:33:10.094Z,10.90
2022-12-06T07:36:10.389Z,10.97
2022-12-06T07:38:25.468Z,12.70
2022-12-06T07:41:04.337Z,11.50
2022-12-06T07:43:49.867Z,12.07
2022-12-06T07:46:17.817Z,11.30
2022-12-06T07:48:45.660Z,13.07
2022-12-06T07:51:13.323Z,12.20
2022-12-06T07:53:41.057Z,13.80
2022-12-06T07:56:10.631Z,12.00
2022-12-06T07:58:38.386Z,12.03
2022-12-06T08:01:06.436Z,12.00
2022-12-06T08:04:05.295Z,11.13
2022-12-06T08:06:34.124Z,12.90
2022-12-06T08:09:02.026Z,13.03
2022-12-06T08:11:31.102Z,12.40
2022-12-06T08:13:59.167Z,11.27
2022-12-06T08:16:26.924Z,12.90
2022-12-06T08:18:54.647Z,13.43
2022-12-06T08:21:22.324Z,13.20
2022-12-06T08:23:49.981Z,12.80
2022-12-06T08:26:18.663Z,13.73
2022-12-06T08:28:48.142Z,13.00
2022-12-06T08:31:17.989Z,12.80
2022-12-06T08:33:46.249Z,11.40
2022-12-06T08:36:16.768Z,12.77
2022-12-06T08:38:44.578Z,12.50
2022-12-06T08:41:26.508Z,13.17
2022-12-06T08:43:55.753Z,12.10
2022-12-06T08:46:24.002Z,12.63
2022-12-06T08:48:52.404Z,11.90
2022-12-06T08:51:20.102Z,12.93
2022-12-06T08:53:47.806Z,13.07
2022-12-06T08:56:15.730Z,13.17
2022-12-06T08:58:43.467Z,11.77
2022-12-06T09:01:14.757Z,11.43
2022-12-06T09:03:42.467Z,10.00
2022-12-06T09:06:11.116Z,11.90
2022-12-06T09:08:39.397Z,11.63
2022-12-06T09:11:08.405Z,10.40
2022-12-06T09:13:37.013Z,10.13
2022-12-06T09:16:07.357Z,10.53
2022-12-06T09:18:36.724Z,11.70
2022-12-06T09:21:06.964Z,11.57
2022-12-06T09:23:34.739Z,10.37
2022-12-06T09:26:02.906Z,10.50
2022-12-06T09:28:31.416Z,11.33
2022-12-06T09:30:59.312Z,11.00
2022-12-06T09:33:27.632Z,10.83
2022-12-06T09:35:57.683Z,10.37
2022-12-06T09:38:29.020Z,9.43
2022-12-06T09:41:09.005Z,11.33
2022-12-06T09:43:47.699Z,9.70
2022-12-06T09:46:39.475Z,9.87
2022-12-06T09:49:28.249Z,8.47
2022-12-06T09:52:18.545Z,9.80
2022-12-06T09:55:03.622Z,8.60
2022-12-06T09:57:38.464Z,8.30
2022-12-06T10:00:11.816Z,9.10
2022-12-06T10:03:02.774Z,10.10
2022-12-06T10:05:42.089Z,11.53
2022-12-06T10:08:27.322Z,8.50
2022-12-06T10:11:03.992Z,8.87
2022-12-06T10:13:54.800Z,8.60
2022-12-06T10:16:37.999Z,8.17
2022-12-06T10:19:16.777Z,8.73
2022-12-06T10:21:56.534Z,9.50
2022-12-06T10:24:41.488Z,8.20
2022-12-06T10:27:12.022Z,7.40
2022-12-06T10:29:53.850Z,7.70
2022-12-06T10:32:36.555Z,7.03
2022-12-06T10:35:17.604Z,6.93
2022-12-06T10:37:58.210Z,8.13
2022-12-06T10:40:31.799Z,6.93
2022-12-06T10:43:04.522Z,7.70
2022-12-06T10:45:55.811Z,6.97
2022-12-06T10:48:33.905Z,5.60
2022-12-06T10:51:06.975Z,6.40
2022-12-06T10:53:41.918Z,5.60
2022-12-06T10:56:17.541Z,4.87
2022-12-06T10:58:52.831Z,5.90
2022-12-06T11:01:23.920Z,5.90
2022-12-06T11:03:59.780Z,4.47
2022-12-06T11:06:33.372Z,6.23
2022-12-06T11:09:06.983Z,5.30
2022-12-06T11:11:40.151Z,4.80
2022-12-06T11:14:19.513Z,4.80
2022-12-06T11:16:55.355Z,4.50
2022-12-06T11:19:30.854Z,3.97
2022-12-06T11:22:05.528Z,4.03
2022-12-06T11:24:39.095Z,4.77
2022-12-06T11:27:15.946Z,4.10
2022-12-06T11:29:44.522Z,5.30
2022-12-06T11:32:15.290Z,5.70
2022-12-06T11:34:47.192Z,4.20
2022-12-06T11:37:18.581Z,4.53
2022-12-06T11:39:47.517Z,4.50
2022-12-06T11:42:20.401Z,3.90
2022-12-06T11:44:56.012Z,4.13
2022-12-06T11:47:24.048Z,5.57
2022-12-06T11:49:54.724Z,4.07
2022-12-06T11:52:29.964Z,4.43
2022-12-06T11:55:00.216Z,4.80
2022-12-06T11:57:34.065Z,5.67
2022-12-06T12:00:12.241Z,5.27
2022-12-06T12:02:45.617Z,4.37
2022-12-06T12:05:20.557Z,6.10
2022-12-06T12:07:51.628Z,5.07
2022-12-06T12:10:38.198Z,4.53
2022-12-06T12:13:40.063Z,4.83
2022-12-06T12:16:16.265Z,4.90
2022-12-06T12:18:52.212Z,5.07
2022-12-06T12:21:32.367Z,4.47
2022-12-06T12:24:00.547Z,5.47
2022-12-06T12:26:38.924Z,5.33
2022-12-06T12:29:17.248Z,5.93
2022-12-06T12:31:54.438Z,4.90
2022-12-06T12:34:23.444Z,5.03
2022-12-06T12:36:53.316Z,4.73
2022-12-06T12:39:27.599Z,3.60
2022-12-06T12:41:55.295Z,4.20
2022-12-06T12:44:42.889Z,3.80
2022-12-06T12:47:19.536Z,4.50
2022-12-06T12:50:02.067Z,3.57
2022-12-06T12:52:32.315Z,3.97
2022-12-06T12:55:02.312Z,4.00
2022-12-06T12:57:30.382Z,3.83
2022-12-06T12:59:59.491Z,3.17
2022-12-06T13:02:30.796Z,3.33
2022-12-06T13:05:31.433Z,3.37
2022-12-06T13:07:53.082Z,3.00
2022-12-06T13:10:28.030Z,3.40
2022-12-06T13:12:59.532Z,3.40
2022-12-06T13:15:35.093Z,3.77
2022-12-06T13:18:11.190Z,3.97
2022-12-06T13:20:39.121Z,4.33
2022-12-06T13:23:12.398Z,4.77
2022-12-06T13:25:40.332Z,3.83
2022-12-06T13:28:16.698Z,4.70
2022-12-06T13:30:47.849Z,5.63
2022-12-06T13:33:21.335Z,5.90
2022-12-06T13:35:55.397Z,5.20
2022-12-06T13:38:27.163Z,4.80
2022-12-06T13:40:56.373Z,4.13
2022-12-06T13:44:00.440Z,5.60
2022-12-06T13:46:34.529Z,4.80
2022-12-06T13:49:24.730Z,4.80
2022-12-06T13:51:52.899Z,3.70
2022-12-06T13:54:32.417Z,4.90
2022-12-06T13:57:03.940Z,5.07
2022-12-06T13:59:49.647Z,4.20
2022-12-06T14:02:52.403Z,5.70
2022-12-06T14:08:35.763Z,5.73
2022-12-06T14:11:28.303Z,4.70
2022-12-06T14:14:03.964Z,5.40
2022-12-06T14:16:36.607Z,5.80
2022-12-06T14:19:15.867Z,4.83
2022-12-06T14:21:45.463Z,4.40
2022-12-06T14:24:31.613Z,4.80
2022-12-06T14:27:07.791Z,4.60
2022-12-06T14:29:35.947Z,3.80
2022-12-06T14:32:03.845Z,5.33
2022-12-06T14:34:35.416Z,4.40
2022-12-06T14:37:12.393Z,4.17
2022-12-06T14:39:40.157Z,4.70
2022-12-06T14:42:35.930Z,5.10
2022-12-06T14:45:04.290Z,4.77
2022-12-06T14:47:33.172Z,8.30
2022-12-06T14:50:21.035Z,7.30
2022-12-06T14:53:04.188Z,3.70
2022-12-06T14:55:34.361Z,4.63
2022-12-06T14:58:04.861Z,4.53
2022-12-06T15:00:37.757Z,4.10
2022-12-06T15:03:25.418Z,3.40
2022-12-06T15:06:14.606Z,4.13
2022-12-06T15:08:44.276Z,3.70
2022-12-06T15:11:50.878Z,4.40
2022-12-06T15:14:21.995Z,4.00
2022-12-06T15:16:59.018Z,3.40
2022-12-06T15:19:27.659Z,3.20
2022-12-06T15:21:56.859Z,2.90
2022-12-06T15:24:26.405Z,4.23
2022-12-06T15:26:54.707Z,4.43
2022-12-06T15:29:22.684Z,4.90
2022-12-06T15:31:54.756Z,3.77
2022-12-06T15:34:25.761Z,3.97
2022-12-06T15:37:15.122Z,4.53
2022-12-06T15:39:43.948Z,3.80
2022-12-06T15:42:17.655Z,3.73
2022-12-06T15:45:01.036Z,4.47
2022-12-06T15:47:29.259Z,3.80
2022-12-06T15:49:58.226Z,3.83
2022-12-06T15:52:27.458Z,4.37
2022-12-06T15:54:57.584Z,5.73
2022-12-06T15:57:26.381Z,4.30
2022-12-06T15:59:54.109Z,4.13
2022-12-06T16:02:21.883Z,7.37
2022-12-06T16:04:51.239Z,5.40
2022-12-06T16:07:19.645Z,5.80
2022-12-06T16:09:48.115Z,4.47
2022-12-06T16:12:17.272Z,5.13
2022-12-06T16:14:45.010Z,5.30
2022-12-06T16:17:12.953Z,5.60
2022-12-06T16:19:58.053Z,5.53
2022-12-06T16:22:45.759Z,5.80
2022-12-06T16:25:12.460Z,5.60
2022-12-06T16:27:41.519Z,5.40
2022-12-06T16:30:10.630Z,5.57
2022-12-06T16:32:38.459Z,4.77
2022-12-06T16:35:06.695Z,6.27
2022-12-06T16:37:34.426Z,6.10
2022-12-06T16:40:02.137Z,6.03
2022-12-06T16:42:29.949Z,6.37
2022-12-06T16:44:59.188Z,5.70
2022-12-06T16:49:53.681Z,6.60
2022-12-06T16:52:21.482Z,7.33
2022-12-06T16:54:50.228Z,6.87
2022-12-06T16:57:19.439Z,7.67
2022-12-06T16:59:47.159Z,7.90
2022-12-06T17:02:27.509Z,7.13
2022-12-06T17:04:55.691Z,8.60
2022-12-06T17:07:23.535Z,6.23
2022-12-06T17:09:51.310Z,7.60
2022-12-06T17:12:19.116Z,7.80
2022-12-06T17:14:47.162Z,8.27
2022-12-06T17:17:16.443Z,6.97
2022-12-06T17:19:45.665Z,6.77
2022-12-06T17:22:16.372Z,7.10
2022-12-06T17:24:44.426Z,7.43
2022-12-06T17:27:14.503Z,7.97
2022-12-06T17:29:48.215Z,8.37
2022-12-06T17:32:20.483Z,8.93
2022-12-06T17:34:49.624Z,9.03
2022-12-06T17:37:17.392Z,6.77
2022-12-06T17:39:45.149Z,5.83
2022-12-06T17:42:31.544Z,6.83
2022-12-06T17:45:00.787Z,7.00
2022-12-06T17:47:29.066Z,6.13
2022-12-06T17:49:58.441Z,6.60
2022-12-06T17:52:26.241Z,7.10
2022-12-06T17:54:53.999Z,6.47
2022-12-06T17:57:21.732Z,7.00
2022-12-06T17:59:49.563Z,7.33
2022-12-06T18:02:19.949Z,7.90
2022-12-06T18:04:48.407Z,7.23
2022-12-06T18:07:18.347Z,7.30
2022-12-06T18:09:46.571Z,7.40
2022-12-06T18:12:15.825Z,6.43
2022-12-06T18:14:43.678Z,7.50
2022-12-06T18:17:11.544Z,7.40
2022-12-06T18:19:40.300Z,6.97
2022-12-06T18:22:08.286Z,7.53
2022-12-06T18:24:37.576Z,8.03
2022-12-06T18:27:06.004Z,7.73
2022-12-06T18:29:34.464Z,8.00
2022-12-06T18:32:02.377Z,7.73
2022-12-06T18:34:30.338Z,8.53
2022-12-06T18:36:58.071Z,7.57
2022-12-06T18:39:27.946Z,8.10
2022-12-06T18:41:57.257Z,8.13
2022-12-06T18:44:25.368Z,7.57
2022-12-06T18:46:53.170Z,7.70
2022-12-06T18:49:20.982Z,9.17
2022-12-06T18:51:48.701Z,8.33
2022-12-06T18:54:16.466Z,8.43
2022-12-06T18:56:44.319Z,7.97
2022-12-06T18:59:13.578Z,8.30
2022-12-06T19:01:42.884Z,9.03
2022-12-06T19:04:14.655Z,8.70
2022-12-06T19:06:44.214Z,8.43
2022-12-06T19:09:14.335Z,7.63
2022-12-06T19:11:46.660Z,8.70
2022-12-06T19:14:17.990Z,7.93
2022-12-06T19:16:47.403Z,7.43
2022-12-06T19:19:17.743Z,8.03
2022-12-06T19:21:46.037Z,8.63
2022-12-06T19:24:16.512Z,8.90
2022-12-06T19:26:44.382Z,8.20
2022-12-06T19:29:12.220Z,8.10
2022-12-06T19:31:41.351Z,8.23
2022-12-06T19:34:15.681Z,8.17
2022-12-06T19:36:43.458Z,7.70
2022-12-06T19:39:11.958Z,8.23
2022-12-06T19:41:53.601Z,9.90
2022-12-06T19:44:21.416Z,8.43
2022-12-06T19:46:50.660Z,8.80
2022-12-06T19:49:21.372Z,9.43
2022-12-06T19:51:49.808Z,9.63
2022-12-06T19:54:19.861Z,8.53
2022-12-06T19:56:49.148Z,9.40
2022-12-06T19:59:16.997Z,9.10
2022-12-06T20:01:46.144Z,8.60
2022-12-06T20:04:17.339Z,9.40
2022-12-06T20:06:47.491Z,9.37
2022-12-06T20:09:15.489Z,9.50
2022-12-06T20:12:04.782Z,8.80
2022-12-06T20:14:37.765Z,9.00
2022-12-06T20:17:09.274Z,9.03
2022-12-06T20:19:38.799Z,10.60
2022-12-06T20:22:06.677Z,9.17
2022-12-06T20:24:44.742Z,11.10
2022-12-06T20:27:12.943Z,9.33
2022-12-06T20:29:40.917Z,9.83
2022-12-06T20:32:11.175Z,9.40
2022-12-06T20:34:40.444Z,9.77
2022-12-06T20:37:08.223Z,9.80
2022-12-06T20:39:36.682Z,10.80
2022-12-06T20:42:06.892Z,11.27
2022-12-06T20:44:36.607Z,10.57
2022-12-06T20:47:04.808Z,9.77
2022-12-06T20:49:32.634Z,10.97
2022-12-06T20:52:03.510Z,10.57
2022-12-06T20:54:32.120Z,10.47
2022-12-06T20:56:59.872Z,10.10
2022-12-06T20:59:29.257Z,11.87
2022-12-06T21:01:57.094Z,11.57
2022-12-06T21:04:25.919Z,12.17
2022-12-06T21:06:53.836Z,11.40
2022-12-06T21:09:23.221Z,11.77
2022-12-06T21:11:51.244Z,11.17
2022-12-06T21:14:19.415Z,12.27
2022-12-06T21:16:47.221Z,11.80
2022-12-06T21:19:17.746Z,11.73
2022-12-06T21:21:48.115Z,10.83
2022-12-06T21:24:18.507Z,12.90
2022-12-06T21:26:47.914Z,11.57
2022-12-06T21:29:17.466Z,10.80
2022-12-06T21:31:46.290Z,11.03
2022-12-06T21:34:15.474Z,9.97
2022-12-06T21:36:43.426Z,12.57
2022-12-06T21:39:11.324Z,11.67
2022-12-06T21:41:39.606Z,12.87
2022-12-06T21:44:08.820Z,11.63
2022-12-06T21:46:36.711Z,10.83
2022-12-06T21:49:04.485Z,10.77
2022-12-06T21:51:33.023Z,11.17
2022-12-06T21:54:01.431Z,10.07
2022-12-06T21:56:31.145Z,11.43
2022-12-06T21:59:01.150Z,11.40
2022-12-06T22:01:32.539Z,11.43
2022-12-06T22:04:03.046Z,10.67
2022-12-06T22:06:32.418Z,9.73
2022-12-06T22:09:02.110Z,8.80
2022-12-06T22:11:30.645Z,9.80
2022-12-06T22:14:01.307Z,9.50
2022-12-06T22:16:30.618Z,8.93
2022-12-06T22:18:58.830Z,9.60
2022-12-06T22:21:28.142Z,9.10
2022-12-06T22:23:57.883Z,8.80
2022-12-06T22:26:28.109Z,9.33
2022-12-06T22:28:56.240Z,8.57
2022-12-06T22:31:26.368Z,9.37
2022-12-06T22:33:56.942Z,9.70
2022-12-06T22:36:25.216Z,8.37
2022-12-06T22:38:54.294Z,9.70
2022-12-06T22:41:22.875Z,8.10
2022-12-06T22:43:51.895Z,8.80
2022-12-06T22:46:20.199Z,8.40
2022-12-06T22:48:48.702Z,10.53
2022-12-06T22:51:22.081Z,8.47
2022-12-06T22:53:54.156Z,8.90
2022-12-06T22:56:21.989Z,8.80
2022-12-06T22:58:49.847Z,8.77
2022-12-06T23:01:19.796Z,9.40
2022-12-06T23:03:49.976Z,9.30
2022-12-06T23:06:20.806Z,9.10
2022-12-06T23:08:48.741Z,8.43
2022-12-06T23:11:19.168Z,7.97
2022-12-06T23:13:47.349Z,9.50
2022-12-06T23:16:17.281Z,8.40
2022-12-06T23:18:45.518Z,8.63
2022-12-06T23:21:15.332Z,8.70
2022-12-06T23:23:47.196Z,9.03
2022-12-06T23:26:17.443Z,8.57
2022-12-06T23:28:46.107Z,8.73
2022-12-06T23:31:15.972Z,8.57
2022-12-06T23:33:44.612Z,9.00
2022-12-06T23:36:14.303Z,8.97
2022-12-06T23:38:44.094Z,9.50
2022-12-06T23:41:14.009Z,9.63
2022-12-06T23:43:42.587Z,9.23
2022-12-06T23:46:12.989Z,9.67
2022-12-06T23:48:40.802Z,8.73
2022-12-06T23:51:11.487Z,7.83
2022-12-06T23:53:40.062Z,8.80
2022-12-06T23:56:11.238Z,9.70
2022-12-06T23:58:39.508Z,8.90
